createdAt,value
2018-09-25T00:00:44.867Z,5.17
2018-09-25T00:01:44.875Z,5.17
2018-09-25T00:02:44.840Z,5.15
2018-09-25T00:03:44.835Z,5.07
2018-09-25T00:04:44.824Z,5.20
2018-09-25T00:05:44.810Z,5.18
2018-09-25T00:06:44.848Z,5.15
2018-09-25T00:07:44.788Z,5.20
2018-09-25T00:08:44.773Z,5.15
2018-09-25T00:09:44.764Z,5.13
2018-09-25T00:10:44.759Z,5.20
2018-09-25T00:11:44.742Z,5.20
2018-09-25T00:12:44.761Z,5.17
2018-09-25T00:13:44.713Z,5.20
2018-09-25T00:14:44.704Z,5.20
2018-09-25T00:15:44.701Z,5.17
2018-09-25T00:16:44.689Z,5.18
2018-09-25T00:17:44.689Z,5.18
2018-09-25T00:18:44.659Z,5.22
2018-09-25T00:19:44.665Z,5.21
2018-09-25T00:20:44.639Z,5.18
2018-09-25T00:21:44.624Z,5.17
2018-09-25T00:22:44.633Z,5.20
2018-09-25T00:23:44.609Z,5.21
2018-09-25T00:24:44.602Z,5.15
2018-09-25T00:25:44.594Z,5.22
2018-09-25T00:26:44.572Z,5.28
2018-09-25T00:27:44.572Z,5.25
2018-09-25T00:28:44.550Z,5.17
2018-09-25T00:29:44.529Z,5.13
2018-09-25T00:30:44.535Z,5.18
2018-09-25T00:31:44.526Z,5.17
2018-09-25T00:32:44.511Z,5.20
2018-09-25T00:33:44.497Z,5.20
2018-09-25T00:34:44.485Z,5.17
2018-09-25T00:35:44.467Z,5.07
2018-09-25T00:36:44.458Z,5.09
2018-09-25T00:37:44.470Z,5.10
2018-09-25T00:38:44.445Z,5.18
2018-09-25T00:39:44.420Z,5.27
2018-09-25T00:40:44.413Z,5.22
2018-09-25T00:41:44.406Z,5.17
2018-09-25T00:42:44.411Z,5.17
2018-09-25T00:43:44.403Z,5.18
2018-09-25T00:44:44.373Z,5.15
2018-09-25T00:45:44.358Z,5.20
2018-09-25T00:46:44.348Z,5.18
2018-09-25T00:47:44.361Z,5.20
2018-09-25T00:48:44.320Z,5.18
2018-09-25T00:49:44.329Z,5.12
2018-09-25T00:50:44.322Z,5.09
2018-09-25T00:51:44.305Z,5.04
2018-09-25T00:52:44.283Z,5.13
2018-09-25T00:53:44.562Z,5.10
2018-09-25T00:54:44.261Z,5.13
2018-09-25T00:55:44.263Z,5.17
2018-09-25T00:56:44.280Z,5.07
2018-09-25T00:57:44.223Z,5.04
2018-09-25T00:58:45.230Z,5.12
2018-09-25T00:59:44.535Z,5.10
2018-09-25T01:00:44.202Z,5.07
2018-09-25T01:01:46.050Z,5.02
2018-09-25T01:02:44.165Z,5.10
2018-09-25T01:03:44.220Z,5.00
2018-09-25T01:04:44.147Z,5.03
2018-09-25T01:05:44.137Z,4.97
2018-09-25T01:06:44.130Z,5.03
2018-09-25T01:07:44.138Z,5.09
2018-09-25T01:08:44.106Z,5.10
2018-09-25T01:09:44.096Z,5.09
2018-09-25T01:10:44.093Z,5.10
2018-09-25T01:11:44.070Z,4.99
2018-09-25T01:12:44.071Z,5.00
2018-09-25T01:13:44.063Z,4.99
2018-09-25T01:14:44.032Z,5.07
2018-09-25T01:15:44.035Z,5.03
2018-09-25T01:16:44.023Z,5.04
2018-09-25T01:17:43.997Z,5.02
2018-09-25T01:18:43.984Z,5.00
2018-09-25T01:19:43.979Z,4.96
2018-09-25T01:20:43.964Z,5.09
2018-09-25T01:21:43.980Z,4.96
2018-09-25T01:22:43.949Z,4.91
2018-09-25T01:23:43.938Z,4.94
2018-09-25T01:24:43.919Z,4.97
2018-09-25T01:25:43.904Z,4.91
2018-09-25T01:26:43.902Z,4.97
2018-09-25T01:27:43.907Z,4.92
2018-09-25T01:28:43.874Z,4.94
2018-09-25T01:29:43.875Z,4.92
2018-09-25T01:30:43.864Z,4.94
2018-09-25T01:31:43.865Z,4.86
2018-09-25T01:32:43.830Z,4.92
2018-09-25T01:33:43.837Z,4.89
2018-09-25T01:34:43.816Z,4.78
2018-09-25T01:35:43.811Z,4.85
2018-09-25T01:36:43.794Z,4.82
2018-09-25T01:37:43.771Z,4.84
2018-09-25T01:38:43.761Z,4.82
2018-09-25T01:39:43.763Z,4.89
2018-09-25T01:40:43.747Z,4.89
2018-09-25T01:41:43.989Z,4.80
2018-09-25T01:42:43.721Z,4.85
2018-09-25T01:43:43.711Z,4.78
2018-09-25T01:44:43.695Z,4.78
2018-09-25T01:45:43.696Z,4.80
2018-09-25T01:46:43.708Z,4.70
2018-09-25T01:47:43.680Z,4.80
2018-09-25T01:48:43.655Z,4.73
2018-09-25T01:49:43.654Z,4.77
2018-09-25T01:50:43.634Z,4.82
2018-09-25T01:51:43.635Z,4.75
2018-09-25T01:52:43.618Z,4.75
2018-09-25T01:53:43.601Z,4.75
2018-09-25T01:54:43.582Z,4.69
2018-09-25T01:55:43.569Z,4.69
2018-09-25T01:56:43.567Z,4.66
2018-09-25T01:57:43.588Z,4.72
2018-09-25T01:58:43.547Z,4.73
2018-09-25T01:59:43.532Z,4.70
2018-09-25T02:00:43.520Z,4.85
2018-09-25T02:01:43.504Z,4.72
2018-09-25T02:02:43.514Z,4.88
2018-09-25T02:03:43.509Z,4.73
2018-09-25T02:04:43.498Z,4.78
2018-09-25T02:05:43.494Z,4.77
2018-09-25T02:06:43.453Z,4.88
2018-09-25T02:07:43.460Z,4.80
2018-09-25T02:08:43.428Z,4.73
2018-09-25T02:09:43.428Z,4.72
2018-09-25T02:10:43.397Z,4.73
2018-09-25T02:11:43.395Z,4.78
2018-09-25T02:12:43.407Z,4.75
2018-09-25T02:13:43.376Z,4.77
2018-09-25T02:14:43.382Z,4.73
2018-09-25T02:15:43.376Z,4.77
2018-09-25T02:16:43.338Z,4.78
2018-09-25T02:17:43.341Z,4.73
2018-09-25T02:18:43.324Z,4.77
2018-09-25T02:19:43.302Z,4.82
2018-09-25T02:20:43.291Z,4.73
2018-09-25T02:21:43.320Z,4.75
2018-09-25T02:22:43.287Z,4.73
2018-09-25T02:23:43.264Z,4.73
2018-09-25T02:24:43.244Z,4.80
2018-09-25T02:25:43.239Z,4.77
2018-09-25T02:26:43.236Z,4.82
2018-09-25T02:27:43.267Z,4.84
2018-09-25T02:28:43.252Z,4.91
2018-09-25T02:29:43.185Z,4.89
2018-09-25T02:30:43.181Z,4.94
2018-09-25T02:31:43.186Z,4.94
2018-09-25T02:32:43.169Z,4.91
2018-09-25T02:33:43.158Z,4.85
2018-09-25T02:34:43.130Z,4.75
2018-09-25T02:35:44.130Z,4.75
2018-09-25T02:36:43.120Z,4.78
2018-09-25T02:37:43.107Z,4.88
2018-09-25T02:38:43.117Z,4.84
2018-09-25T02:39:43.076Z,4.86
2018-09-25T02:40:43.074Z,4.88
2018-09-25T02:41:43.054Z,4.84
2018-09-25T02:42:43.053Z,4.82
2018-09-25T02:43:43.047Z,4.73
2018-09-25T02:44:43.029Z,4.75
2018-09-25T02:45:43.016Z,4.85
2018-09-25T02:46:43.006Z,4.78
2018-09-25T02:47:43.004Z,4.86
2018-09-25T02:48:43.012Z,4.77
2018-09-25T02:49:42.977Z,4.84
2018-09-25T02:50:44.634Z,4.80
2018-09-25T02:51:42.958Z,4.85
2018-09-25T02:52:42.937Z,4.89
2018-09-25T02:53:42.928Z,4.75
2018-09-25T02:54:42.921Z,4.78
2018-09-25T02:55:42.915Z,4.82
2018-09-25T02:56:42.896Z,4.75
2018-09-25T02:57:42.871Z,4.73
2018-09-25T02:58:42.887Z,4.72
2018-09-25T02:59:42.861Z,4.65
2018-09-25T03:00:42.846Z,4.60
2018-09-25T03:01:42.867Z,4.63
2018-09-25T03:02:42.820Z,4.65
2018-09-25T03:03:42.826Z,4.69
2018-09-25T03:04:42.807Z,4.67
2018-09-25T03:05:42.794Z,4.70
2018-09-25T03:06:42.771Z,4.66
2018-09-25T03:07:42.796Z,4.72
2018-09-25T03:08:42.779Z,4.78
2018-09-25T03:09:42.747Z,4.72
2018-09-25T03:10:42.736Z,4.60
2018-09-25T03:11:42.723Z,4.59
2018-09-25T03:12:42.722Z,4.63
2018-09-25T03:13:42.725Z,4.62
2018-09-25T03:14:42.702Z,4.66
2018-09-25T03:15:42.686Z,4.59
2018-09-25T03:16:42.673Z,4.50
2018-09-25T03:17:42.668Z,4.54
2018-09-25T03:18:42.647Z,4.58
2018-09-25T03:19:42.677Z,4.55
2018-09-25T03:20:49.558Z,4.52
2018-09-25T03:21:42.612Z,4.51
2018-09-25T03:22:42.602Z,4.55
2018-09-25T03:23:42.606Z,4.50
2018-09-25T03:24:42.602Z,4.45
2018-09-25T03:25:42.579Z,4.44
2018-09-25T03:26:42.557Z,4.44
2018-09-25T03:27:42.545Z,4.54
2018-09-25T03:28:42.534Z,4.51
2018-09-25T03:29:42.553Z,4.55
2018-09-25T03:30:42.515Z,4.48
2018-09-25T03:31:42.513Z,4.52
2018-09-25T03:32:42.484Z,4.45
2018-09-25T03:33:42.486Z,4.48
2018-09-25T03:34:42.486Z,4.50
2018-09-25T03:35:42.463Z,4.45
2018-09-25T03:36:42.444Z,4.52
2018-09-25T03:37:42.447Z,4.54
2018-09-25T03:38:42.418Z,4.48
2018-09-25T03:39:42.424Z,4.55
2018-09-25T03:40:42.533Z,4.48
2018-09-25T03:41:42.392Z,4.58
2018-09-25T03:42:42.389Z,4.54
2018-09-25T03:43:42.362Z,4.51
2018-09-25T03:44:42.388Z,4.50
2018-09-25T03:45:42.349Z,4.51
2018-09-25T03:46:42.340Z,4.52
2018-09-25T03:47:42.309Z,4.55
2018-09-25T03:48:42.335Z,4.52
2018-09-25T03:49:42.293Z,4.51
2018-09-25T03:50:42.295Z,4.60
2018-09-25T03:51:42.282Z,4.47
2018-09-25T03:52:42.257Z,4.50
2018-09-25T03:53:42.253Z,4.50
2018-09-25T03:54:42.254Z,4.34
2018-09-25T03:55:42.253Z,4.45
2018-09-25T03:56:42.216Z,4.41
2018-09-25T03:57:42.211Z,4.44
2018-09-25T03:58:42.192Z,4.45
2018-09-25T03:59:42.268Z,4.47
2018-09-25T04:00:42.206Z,4.50
2018-09-25T04:01:42.163Z,4.45
2018-09-25T04:02:42.151Z,4.54
2018-09-25T04:03:42.158Z,4.42
2018-09-25T04:04:42.137Z,4.50
2018-09-25T04:05:42.182Z,4.33
2018-09-25T04:06:42.110Z,4.40
2018-09-25T04:07:42.103Z,4.40
2018-09-25T04:08:42.099Z,4.40
2018-09-25T04:09:42.143Z,4.40
2018-09-25T04:10:42.176Z,4.41
2018-09-25T04:11:42.059Z,4.40
2018-09-25T04:12:42.041Z,4.36
2018-09-25T04:13:42.038Z,4.34
2018-09-25T04:14:42.030Z,4.36
2018-09-25T04:15:42.032Z,4.29
2018-09-25T04:16:41.990Z,4.33
2018-09-25T04:17:41.997Z,4.34
2018-09-25T04:18:41.982Z,4.30
2018-09-25T04:19:41.961Z,4.30
2018-09-25T04:20:41.973Z,4.23
2018-09-25T04:21:41.939Z,4.18
2018-09-25T04:22:41.930Z,4.15
2018-09-25T04:23:41.936Z,4.15
2018-09-25T04:24:41.902Z,4.30
2018-09-25T04:25:41.922Z,4.29
2018-09-25T04:26:41.893Z,4.32
2018-09-25T04:27:41.877Z,4.34
2018-09-25T04:28:41.859Z,4.32
2018-09-25T04:29:41.873Z,4.36
2018-09-25T04:30:41.838Z,4.36
2018-09-25T04:31:41.847Z,4.41
2018-09-25T04:32:41.838Z,4.34
2018-09-25T04:33:41.805Z,4.36
2018-09-25T04:34:41.794Z,4.40
2018-09-25T04:35:41.805Z,4.34
2018-09-25T04:36:41.785Z,4.44
2018-09-25T04:37:41.773Z,4.32
2018-09-25T04:38:41.773Z,4.45
2018-09-25T04:39:41.741Z,4.45
2018-09-25T04:40:41.729Z,4.47
2018-09-25T04:41:41.733Z,4.33
2018-09-25T04:42:41.716Z,4.34
2018-09-25T04:43:41.709Z,4.48
2018-09-25T04:44:41.691Z,4.54
2018-09-25T04:45:41.681Z,4.50
2018-09-25T04:46:41.682Z,4.50
2018-09-25T04:47:41.701Z,4.37
2018-09-25T04:48:41.656Z,4.37
2018-09-25T04:49:41.644Z,4.45
2018-09-25T04:51:13.111Z,4.47
2018-09-25T04:51:41.619Z,4.40
2018-09-25T04:52:41.592Z,4.37
2018-09-25T04:53:41.604Z,4.50
2018-09-25T04:54:41.578Z,4.41
2018-09-25T04:55:41.561Z,4.40
2018-09-25T04:56:41.578Z,4.40
2018-09-25T04:57:41.546Z,4.40
2018-09-25T04:58:41.533Z,4.41
2018-09-25T04:59:41.539Z,4.34
2018-09-25T05:00:41.511Z,4.40
2018-09-25T05:01:41.525Z,4.36
2018-09-25T05:02:41.492Z,4.41
2018-09-25T05:03:41.467Z,4.41
2018-09-25T05:04:41.466Z,4.37
2018-09-25T05:05:41.477Z,4.36
2018-09-25T05:06:41.479Z,4.41
2018-09-25T05:07:41.435Z,4.36
2018-09-25T05:08:41.418Z,4.33
2018-09-25T05:09:41.402Z,4.32
2018-09-25T05:10:41.397Z,4.32
2018-09-25T05:11:41.401Z,4.30
2018-09-25T05:12:44.809Z,4.27
2018-09-25T05:13:41.366Z,4.26
2018-09-25T05:14:41.383Z,4.33
2018-09-25T05:15:41.333Z,4.34
2018-09-25T05:16:41.328Z,4.41
2018-09-25T05:17:41.353Z,4.36
2018-09-25T05:18:41.296Z,4.36
2018-09-25T05:19:41.297Z,4.40
2018-09-25T05:20:41.287Z,4.41
2018-09-25T05:21:41.270Z,4.42
2018-09-25T05:22:41.265Z,4.44
2018-09-25T05:23:41.283Z,4.40
2018-09-25T05:24:41.278Z,4.37
2018-09-25T05:25:41.231Z,4.40
2018-09-25T05:26:41.216Z,4.36
2018-09-25T05:27:41.223Z,4.36
2018-09-25T05:28:41.193Z,4.47
2018-09-25T05:29:41.190Z,4.42
2018-09-25T05:30:41.169Z,4.42
2018-09-25T05:31:41.158Z,4.41
2018-09-25T05:32:41.169Z,4.45
2018-09-25T05:33:41.132Z,4.47
2018-09-25T05:34:41.136Z,4.45
2018-09-25T05:35:41.131Z,4.45
2018-09-25T05:36:41.106Z,4.52
2018-09-25T05:37:41.123Z,4.48
2018-09-25T05:38:41.076Z,4.47
2018-09-25T05:39:41.074Z,4.37
2018-09-25T05:40:41.062Z,4.44
2018-09-25T05:41:42.053Z,4.48
2018-09-25T05:42:41.037Z,4.48
2018-09-25T05:43:41.054Z,4.51
2018-09-25T05:44:41.009Z,4.60
2018-09-25T05:45:41.065Z,4.54
2018-09-25T05:46:41.002Z,4.54
2018-09-25T05:47:40.986Z,4.50
2018-09-25T05:48:41.010Z,4.54
2018-09-25T05:49:40.964Z,4.59
2018-09-25T05:50:40.944Z,4.54
2018-09-25T05:51:40.946Z,4.51
2018-09-25T05:52:40.923Z,4.47
2018-09-25T05:53:40.917Z,4.42
2018-09-25T05:54:40.911Z,4.50
2018-09-25T05:55:40.989Z,4.66
2018-09-25T05:56:40.883Z,4.65
2018-09-25T05:57:40.867Z,4.69
2018-09-25T05:58:40.875Z,4.73
2018-09-25T05:59:40.853Z,4.73
2018-09-25T06:00:40.833Z,4.75
2018-09-25T06:01:40.841Z,4.69
2018-09-25T06:02:40.824Z,4.62
2018-09-25T06:03:40.820Z,4.60
2018-09-25T06:04:40.792Z,4.58
2018-09-25T06:05:40.786Z,4.58
2018-09-25T06:06:40.768Z,4.51
2018-09-25T06:07:40.765Z,4.59
2018-09-25T06:08:41.497Z,4.59
2018-09-25T06:09:40.788Z,4.59
2018-09-25T06:10:40.719Z,4.60
2018-09-25T06:11:40.706Z,4.60
2018-09-25T06:12:40.700Z,4.69
2018-09-25T06:13:40.703Z,4.66
2018-09-25T06:14:40.693Z,4.69
2018-09-25T06:15:40.714Z,4.77
2018-09-25T06:16:40.656Z,4.70
2018-09-25T06:17:40.642Z,4.73
2018-09-25T06:18:40.699Z,4.85
2018-09-25T06:19:40.626Z,4.80
2018-09-25T06:20:40.631Z,4.84
2018-09-25T06:21:40.601Z,4.84
2018-09-25T06:22:40.593Z,4.88
2018-09-25T06:23:40.575Z,4.97
2018-09-25T06:24:40.576Z,4.94
2018-09-25T06:25:40.556Z,4.96
2018-09-25T06:26:40.562Z,5.07
2018-09-25T06:27:40.529Z,5.12
2018-09-25T06:28:40.544Z,5.09
2018-09-25T06:29:40.524Z,5.13
2018-09-25T06:30:40.527Z,5.18
2018-09-25T06:31:40.492Z,5.25
2018-09-25T06:32:40.473Z,5.39
2018-09-25T06:33:40.481Z,5.36
2018-09-25T06:34:40.502Z,5.46
2018-09-25T06:35:40.445Z,5.43
2018-09-25T06:36:40.439Z,5.48
2018-09-25T06:37:40.423Z,5.42
2018-09-25T06:38:40.419Z,5.54
2018-09-25T06:39:40.443Z,5.75
2018-09-25T06:40:40.411Z,5.75
2018-09-25T06:41:40.377Z,5.72
2018-09-25T06:42:40.363Z,5.81
2018-09-25T06:43:40.348Z,5.78
2018-09-25T06:44:40.374Z,5.85
2018-09-25T06:45:40.345Z,5.81
2018-09-25T06:46:40.327Z,5.79
2018-09-25T06:47:40.306Z,5.96
2018-09-25T06:48:40.290Z,5.72
2018-09-25T06:49:40.372Z,5.68
2018-09-25T06:50:40.272Z,5.58
2018-09-25T06:51:40.280Z,5.75
2018-09-25T06:52:40.257Z,5.79
2018-09-25T06:53:40.238Z,5.79
2018-09-25T06:54:40.239Z,5.83
2018-09-25T06:55:40.226Z,5.83
2018-09-25T06:56:40.201Z,5.79
2018-09-25T06:57:40.206Z,5.86
2018-09-25T06:58:40.186Z,5.79
2018-09-25T06:59:40.170Z,5.78
2018-09-25T07:00:40.179Z,5.78
2018-09-25T07:01:40.151Z,5.81
2018-09-25T07:02:40.145Z,5.86
2018-09-25T07:03:40.144Z,5.81
2018-09-25T07:04:40.116Z,5.90
2018-09-25T07:05:40.137Z,6.06
2018-09-25T07:06:40.101Z,6.12
2018-09-25T07:07:40.083Z,6.15
2018-09-25T07:08:40.080Z,6.08
2018-09-25T07:09:40.096Z,6.06
2018-09-25T07:10:40.102Z,6.06
2018-09-25T07:11:40.042Z,6.14
2018-09-25T07:12:40.035Z,6.30
2018-09-25T07:13:40.016Z,6.28
2018-09-25T07:14:40.003Z,6.30
2018-09-25T07:15:40.008Z,6.30
2018-09-25T07:16:39.981Z,6.08
2018-09-25T07:17:40.028Z,6.04
2018-09-25T07:18:39.968Z,6.14
2018-09-25T07:19:39.947Z,6.14
2018-09-25T07:20:39.950Z,6.14
2018-09-25T07:21:39.939Z,6.19
2018-09-25T07:22:39.948Z,6.15
2018-09-25T07:23:39.945Z,6.14
2018-09-25T07:24:39.977Z,6.14
2018-09-25T07:25:39.917Z,6.25
2018-09-25T07:26:39.904Z,6.21
2018-09-25T07:27:39.854Z,6.22
2018-09-25T07:28:39.849Z,6.19
2018-09-25T07:29:39.840Z,6.11
2018-09-25T07:30:39.894Z,6.11
2018-09-25T07:31:39.811Z,6.03
2018-09-25T07:32:39.805Z,6.14
2018-09-25T07:33:39.799Z,6.19
2018-09-25T07:34:39.789Z,6.25
2018-09-25T07:35:39.779Z,6.30
2018-09-25T07:36:39.817Z,6.38
2018-09-25T07:37:39.750Z,6.44
2018-09-25T07:38:39.746Z,6.52
2018-09-25T07:39:39.806Z,6.55
2018-09-25T07:40:39.720Z,6.54
2018-09-25T07:41:39.729Z,6.56
2018-09-25T07:42:39.695Z,6.58
2018-09-25T07:43:39.673Z,6.67
2018-09-25T07:44:39.699Z,6.67
2018-09-25T07:45:39.655Z,6.55
2018-09-25T07:46:39.655Z,6.64
2018-09-25T07:47:39.638Z,6.71
2018-09-25T07:48:39.623Z,6.67
2018-09-25T07:49:39.619Z,6.66
2018-09-25T07:50:39.632Z,6.73
2018-09-25T07:51:39.613Z,6.58
2018-09-25T07:52:39.601Z,6.67
2018-09-25T07:53:39.574Z,6.77
2018-09-25T07:54:39.562Z,6.79
2018-09-25T07:55:40.575Z,6.89
2018-09-25T07:56:39.539Z,6.91
2018-09-25T07:57:39.530Z,6.97
2018-09-25T07:58:39.511Z,6.94
2018-09-25T07:59:39.511Z,6.91
2018-09-25T08:00:39.496Z,6.74
2018-09-25T08:01:39.502Z,6.79
2018-09-25T08:02:39.462Z,6.70
2018-09-25T08:03:39.495Z,6.67
2018-09-25T08:04:39.436Z,6.70
2018-09-25T08:05:39.448Z,6.74
2018-09-25T08:06:39.425Z,6.69
2018-09-25T08:07:39.431Z,6.62
2018-09-25T08:08:39.413Z,6.55
2018-09-25T08:09:39.393Z,6.73
2018-09-25T08:10:39.369Z,6.84
2018-09-25T08:11:39.395Z,6.94
2018-09-25T08:12:39.376Z,6.95
2018-09-25T08:13:39.340Z,6.99
2018-09-25T08:14:39.378Z,6.99
2018-09-25T08:15:39.323Z,6.97
2018-09-25T08:16:39.306Z,7.06
2018-09-25T08:17:39.334Z,7.13
2018-09-25T08:18:39.290Z,7.15
2018-09-25T08:19:39.273Z,7.15
2018-09-25T08:20:39.267Z,7.15
2018-09-25T08:21:39.260Z,7.23
2018-09-25T08:22:39.257Z,7.27
2018-09-25T08:23:39.259Z,7.30
2018-09-25T08:24:39.218Z,7.30
2018-09-25T08:25:39.207Z,7.34
2018-09-25T08:26:39.480Z,7.35
2018-09-25T08:27:39.193Z,7.39
2018-09-25T08:28:39.176Z,7.37
2018-09-25T08:29:39.224Z,7.27
2018-09-25T08:30:39.152Z,7.28
2018-09-25T08:31:39.152Z,7.27
2018-09-25T08:32:39.165Z,7.25
2018-09-25T08:33:39.125Z,7.27
2018-09-25T08:34:39.103Z,7.40
2018-09-25T08:35:39.111Z,7.45
2018-09-25T08:36:39.079Z,7.35
2018-09-25T08:37:39.157Z,7.35
2018-09-25T08:38:39.100Z,7.58
2018-09-25T08:39:39.049Z,7.67
2018-09-25T08:40:39.036Z,7.61
2018-09-25T08:41:39.060Z,7.61
2018-09-25T08:42:39.010Z,7.77
2018-09-25T08:43:39.022Z,7.77
2018-09-25T08:44:38.991Z,7.82
2018-09-25T08:45:39.024Z,7.87
2018-09-25T08:46:38.983Z,7.90
2018-09-25T08:47:38.963Z,8.01
2018-09-25T08:48:38.968Z,8.10
2018-09-25T08:49:38.970Z,8.10
2018-09-25T08:50:38.920Z,8.15
2018-09-25T08:51:38.920Z,8.12
2018-09-25T08:52:38.929Z,8.02
2018-09-25T08:53:39.005Z,7.87
2018-09-25T08:54:38.885Z,7.83
2018-09-25T08:55:38.873Z,7.72
2018-09-25T08:56:38.865Z,7.61
2018-09-25T08:57:38.848Z,7.50
2018-09-25T08:58:38.887Z,7.60
2018-09-25T08:59:38.827Z,7.61
2018-09-25T09:00:38.812Z,7.74
2018-09-25T09:01:38.819Z,7.82
2018-09-25T09:02:38.785Z,7.79
2018-09-25T09:03:38.794Z,7.85
2018-09-25T09:04:38.767Z,7.89
2018-09-25T09:05:38.780Z,7.97
2018-09-25T09:06:38.740Z,8.07
2018-09-25T09:07:38.729Z,8.11
2018-09-25T09:08:38.735Z,8.10
2018-09-25T09:09:38.714Z,8.11
2018-09-25T09:10:38.708Z,8.08
2018-09-25T09:11:38.717Z,8.08
2018-09-25T09:12:38.674Z,8.11
2018-09-25T09:13:38.684Z,8.18
2018-09-25T09:14:38.652Z,8.01
2018-09-25T09:15:38.641Z,8.08
2018-09-25T09:16:38.638Z,8.07
2018-09-25T09:17:38.653Z,8.00
2018-09-25T09:18:38.619Z,8.07
2018-09-25T09:19:38.685Z,8.11
2018-09-25T09:20:38.588Z,8.19
2018-09-25T09:21:38.585Z,8.25
2018-09-25T09:22:38.565Z,8.37
2018-09-25T09:23:38.561Z,8.28
2018-09-25T09:24:38.554Z,8.40
2018-09-25T09:25:38.550Z,8.30
2018-09-25T09:26:38.516Z,8.26
2018-09-25T09:27:38.516Z,8.29
2018-09-25T09:28:38.495Z,8.26
2018-09-25T09:29:38.500Z,8.20
2018-09-25T09:30:38.468Z,8.23
2018-09-25T09:31:38.483Z,8.11
2018-09-25T09:32:38.569Z,8.19
2018-09-25T09:33:38.439Z,8.11
2018-09-25T09:34:38.471Z,8.10
2018-09-25T09:35:38.428Z,7.97
2018-09-25T09:36:38.408Z,7.95
2018-09-25T09:37:38.415Z,7.93
2018-09-25T09:38:38.400Z,7.89
2018-09-25T09:39:38.383Z,7.95
2018-09-25T09:40:38.361Z,7.95
2018-09-25T09:41:38.566Z,8.15
2018-09-25T09:42:38.349Z,8.10
2018-09-25T09:43:38.325Z,8.30
2018-09-25T09:44:38.340Z,8.45
2018-09-25T09:45:38.328Z,8.56
2018-09-25T09:46:38.287Z,8.68
2018-09-25T09:47:38.284Z,8.62
2018-09-25T09:48:38.271Z,8.76
2018-09-25T09:49:38.300Z,8.68
2018-09-25T09:50:38.256Z,8.61
2018-09-25T09:51:38.232Z,8.50
2018-09-25T09:52:38.246Z,8.36
2018-09-25T09:53:38.217Z,8.45
2018-09-25T09:54:38.235Z,8.44
2018-09-25T09:55:38.191Z,8.47
2018-09-25T09:56:38.170Z,8.48
2018-09-25T09:57:38.169Z,8.55
2018-09-25T09:58:38.183Z,8.65
2018-09-25T09:59:38.148Z,8.71
2018-09-25T10:00:38.150Z,8.76
2018-09-25T10:01:38.130Z,8.87
2018-09-25T10:02:38.122Z,8.86
2018-09-25T10:03:38.111Z,8.99
2018-09-25T10:04:38.092Z,9.01
2018-09-25T10:05:38.133Z,9.14
2018-09-25T10:06:38.073Z,9.23
2018-09-25T10:07:38.061Z,9.20
2018-09-25T10:08:38.046Z,9.21
2018-09-25T10:09:38.041Z,9.32
2018-09-25T10:10:38.071Z,9.39
2018-09-25T10:11:38.024Z,9.46
2018-09-25T10:12:38.061Z,9.32
2018-09-25T10:13:38.016Z,9.24
2018-09-25T10:14:37.981Z,9.04
2018-09-25T10:15:37.989Z,8.81
2018-09-25T10:16:37.958Z,8.65
2018-09-25T10:17:37.959Z,8.59
2018-09-25T10:18:37.945Z,8.41
2018-09-25T10:19:37.939Z,8.50
2018-09-25T10:20:37.962Z,8.50
2018-09-25T10:21:37.900Z,8.63
2018-09-25T10:22:37.890Z,8.73
2018-09-25T10:23:37.884Z,8.73
2018-09-25T10:24:37.874Z,8.87
2018-09-25T10:25:37.897Z,8.91
2018-09-25T10:26:37.884Z,8.98
2018-09-25T10:27:37.847Z,9.01
2018-09-25T10:28:37.838Z,9.04
2018-09-25T10:29:37.822Z,9.21
2018-09-25T10:30:37.808Z,9.29
2018-09-25T10:31:37.818Z,9.50
2018-09-25T10:32:37.846Z,9.68
2018-09-25T10:33:37.824Z,9.76
2018-09-25T10:34:37.876Z,9.91
2018-09-25T10:35:37.758Z,9.99
2018-09-25T10:36:37.761Z,9.99
2018-09-25T10:37:37.746Z,9.84
2018-09-25T10:38:37.754Z,9.58
2018-09-25T10:39:37.713Z,9.35
2018-09-25T10:40:37.706Z,9.38
2018-09-25T10:41:37.699Z,9.33
2018-09-25T10:43:09.535Z,9.32
2018-09-25T10:43:37.666Z,9.20
2018-09-25T10:44:37.651Z,9.15
2018-09-25T10:45:37.666Z,9.24
2018-09-25T10:46:37.653Z,9.24
2018-09-25T10:47:37.616Z,9.23
2018-09-25T10:48:37.605Z,9.29
2018-09-25T10:49:37.593Z,9.35
2018-09-25T10:50:37.585Z,9.46
2018-09-25T10:51:37.599Z,9.51
2018-09-25T10:52:37.577Z,9.46
2018-09-25T10:53:37.547Z,9.36
2018-09-25T10:54:37.548Z,9.48
2018-09-25T10:55:37.605Z,9.58
2018-09-25T10:56:37.537Z,9.61
2018-09-25T10:57:37.504Z,9.65
2018-09-25T10:58:37.521Z,9.60
2018-09-25T10:59:37.500Z,9.53
2018-09-25T11:00:37.471Z,9.43
2018-09-25T11:01:37.479Z,9.31
2018-09-25T11:02:37.473Z,9.24
2018-09-25T11:03:37.439Z,9.15
2018-09-25T11:04:37.441Z,9.05
2018-09-25T11:05:37.445Z,8.84
2018-09-25T11:06:37.448Z,8.86
2018-09-25T11:07:37.415Z,8.98
2018-09-25T11:08:37.393Z,9.20
2018-09-25T11:09:37.381Z,9.35
2018-09-25T11:10:37.375Z,9.38
2018-09-25T11:11:37.374Z,9.58
2018-09-25T11:12:37.357Z,9.68
2018-09-25T11:13:37.332Z,9.84
2018-09-25T11:14:37.318Z,9.97
2018-09-25T11:15:37.313Z,9.99
2018-09-25T11:16:37.306Z,10.04
2018-09-25T11:17:37.359Z,10.08
2018-09-25T11:18:37.281Z,10.20
2018-09-25T11:19:37.269Z,10.42
2018-09-25T11:20:37.266Z,10.48
2018-09-25T11:21:37.248Z,10.71
2018-09-25T11:22:37.249Z,10.60
2018-09-25T11:23:37.224Z,10.71
2018-09-25T11:24:37.247Z,10.85
2018-09-25T11:25:37.258Z,10.73
2018-09-25T11:26:37.195Z,10.63
2018-09-25T11:27:37.195Z,10.61
2018-09-25T11:28:37.211Z,10.14
2018-09-25T11:29:37.151Z,9.97
2018-09-25T11:30:37.172Z,9.89
2018-09-25T11:31:37.133Z,9.64
2018-09-25T11:32:37.131Z,9.58
2018-09-25T11:33:37.107Z,9.54
2018-09-25T11:34:37.095Z,9.33
2018-09-25T11:35:37.089Z,9.38
2018-09-25T11:36:37.105Z,9.36
2018-09-25T11:37:37.083Z,9.46
2018-09-25T11:38:37.048Z,9.65
2018-09-25T11:39:37.043Z,9.65
2018-09-25T11:40:37.037Z,9.86
2018-09-25T11:41:37.019Z,10.14
2018-09-25T11:42:37.047Z,10.30
2018-09-25T11:43:36.994Z,10.38
2018-09-25T11:44:36.992Z,10.68
2018-09-25T11:45:36.972Z,10.86
2018-09-25T11:46:36.967Z,11.02
2018-09-25T11:47:36.950Z,10.94
2018-09-25T11:48:36.962Z,11.06
2018-09-25T11:49:36.927Z,10.84
2018-09-25T11:50:39.153Z,10.56
2018-09-25T11:51:36.905Z,10.18
2018-09-25T11:52:36.902Z,10.12
2018-09-25T11:53:36.901Z,10.02
2018-09-25T11:54:36.913Z,9.99
2018-09-25T11:55:36.867Z,9.86
2018-09-25T11:56:36.855Z,9.74
2018-09-25T11:57:36.838Z,9.72
2018-09-25T11:58:36.922Z,9.65
2018-09-25T11:59:36.824Z,9.76
2018-09-25T12:00:36.843Z,9.83
2018-09-25T12:01:36.805Z,10.15
2018-09-25T12:02:36.792Z,10.45
2018-09-25T12:03:36.798Z,10.51
2018-09-25T12:04:36.855Z,10.53
2018-09-25T12:05:36.762Z,10.55
2018-09-25T12:06:36.774Z,10.56
2018-09-25T12:07:36.732Z,10.71
2018-09-25T12:08:36.732Z,10.52
2018-09-25T12:09:36.720Z,10.56
2018-09-25T12:10:36.710Z,10.51
2018-09-25T12:11:36.701Z,10.51
2018-09-25T12:12:36.685Z,10.22
2018-09-25T12:13:36.717Z,10.20
2018-09-25T12:14:36.655Z,9.89
2018-09-25T12:15:36.650Z,9.84
2018-09-25T12:16:36.645Z,9.81
2018-09-25T12:17:36.708Z,9.86
2018-09-25T12:18:36.627Z,10.01
2018-09-25T12:19:36.598Z,10.17
2018-09-25T12:20:36.602Z,10.34
2018-09-25T12:21:36.581Z,10.56
2018-09-25T12:22:36.552Z,10.70
2018-09-25T12:23:36.590Z,11.03
2018-09-25T12:24:36.556Z,11.25
2018-09-25T12:25:36.540Z,11.60
2018-09-25T12:26:36.533Z,11.79
2018-09-25T12:27:36.502Z,12.12
2018-09-25T12:28:36.485Z,12.16
2018-09-25T12:29:36.489Z,12.27
2018-09-25T12:30:36.472Z,12.13
2018-09-25T12:31:36.461Z,12.13
2018-09-25T12:32:36.532Z,12.02
2018-09-25T12:33:36.424Z,12.14
2018-09-25T12:34:36.439Z,12.28
2018-09-25T12:35:36.416Z,12.34
2018-09-25T12:36:36.408Z,12.20
2018-09-25T12:37:36.386Z,12.19
2018-09-25T12:38:36.394Z,12.12
2018-09-25T12:39:36.372Z,12.20
2018-09-25T12:40:36.345Z,12.04
2018-09-25T12:41:36.340Z,12.13
2018-09-25T12:42:36.332Z,12.23
2018-09-25T12:43:36.328Z,12.31
2018-09-25T12:44:36.312Z,12.29
2018-09-25T12:45:36.316Z,12.29
2018-09-25T12:46:36.283Z,12.35
2018-09-25T12:47:36.282Z,12.24
2018-09-25T12:48:36.257Z,12.35
2018-09-25T12:49:36.252Z,12.13
2018-09-25T12:50:36.238Z,11.95
2018-09-25T12:51:36.236Z,11.98
2018-09-25T12:52:36.278Z,12.19
2018-09-25T12:53:36.213Z,12.27
2018-09-25T12:54:36.218Z,12.64
2018-09-25T12:55:36.180Z,12.70
2018-09-25T12:56:36.174Z,12.85
2018-09-25T12:57:36.176Z,12.74
2018-09-25T12:58:36.149Z,12.53
2018-09-25T12:59:36.140Z,12.29
2018-09-25T13:00:36.129Z,12.12
2018-09-25T13:01:36.124Z,11.96
2018-09-25T13:02:36.107Z,11.98
2018-09-25T13:03:36.100Z,11.80
2018-09-25T13:04:36.080Z,11.83
2018-09-25T13:05:36.088Z,11.96
2018-09-25T13:06:36.054Z,12.02
2018-09-25T13:07:36.041Z,11.91
2018-09-25T13:08:36.038Z,11.90
2018-09-25T13:09:36.064Z,11.99
2018-09-25T13:10:36.032Z,12.07
2018-09-25T13:11:35.998Z,12.16
2018-09-25T13:12:35.989Z,12.01
2018-09-25T13:13:35.977Z,11.99
2018-09-25T13:14:35.970Z,11.88
2018-09-25T13:15:35.973Z,11.79